Auburn, CA

9:08 PM PDT on August 23, 2016 (GMT -0700)
Cramer | | Change Station

Elev 1283 ft 38.98 °N, 121.13 °W | Updated 1 minute ago

Clear
Clear
71.6 °F
Feels Like 77 °F
N
0.0
Wind Variable Wind from NW
Gusts 0.0 mph

Today
High -- | Low -- °F
--% Chance of Precip.
Yesterday
High -- | Low -- °F
Precip. -- in
Pressure 30.06 in
Visibility 10.0 miles
Clouds Clear
Heat Index 77 °F
Dew Point 49 °F
Humidity 45%
Rainfall 0.00 in
Snow Depth Not available.
6:25 AM 7:47 PM
Waning Gibbous, 61% visible
METAR KAUN 240355Z AUTO 13005KT 10SM CLR 24/04 A3006 RMK AO1
Pressure 30.06 in
Visibility 10.0 miles
Clouds Clear
Heat Index 77 °F
Dew Point 49 °F
Humidity 45%
Rainfall 0.00 in
Snow Depth Not available.
6:25 AM 7:47 PM
Waning Gibbous, 61% visible
METAR KAUN 240355Z AUTO 13005KT 10SM CLR 24/04 A3006 RMK AO1

10-Day Weather Forecast

Almanac

Astronomy

Aug. 23, 2016 Rise Set
Actual Time
Civil Twilight
Nautical Twilight
Astronomical Twilight
Moon
Length of Visible Light
Length of Day
Tomorrow will be .
, % of the Moon is Illuminated

Today's Extremes

State Highs State Lows

Community

WunderPhotos

Upload Photos

1,934,547 photos uploaded!

WunderBlog® & News

Nearby

Air Quality

  Air Quality AQ Index Pollutant
Not available.

Snow Depth

Station Depth Elevation

Earthquake Activity

City Distance Mag. Time & Date
Minimum magnitude displayed is 2.5.

Coastal Water Temperatures

Place Temperature

Stations

Nearby Weather Stations

Station Location Temp. Windchill Dew Point Humidity Wind Precip. Elev Updated Type
                   

Watches & Warnings

There are currently no watches in effect.